createdAt,value
2018-09-06T00:01:59.669Z,96.80
2018-09-06T00:04:28.664Z,96.90
2018-09-06T00:06:57.711Z,96.90
2018-09-06T00:09:26.988Z,97.00
2018-09-06T00:11:56.056Z,97.10
2018-09-06T00:14:25.053Z,97.20
2018-09-06T00:16:54.735Z,97.50
2018-09-06T00:19:23.740Z,97.30
2018-09-06T00:21:52.746Z,97.50
2018-09-06T00:24:21.728Z,97.50
2018-09-06T00:26:50.862Z,97.60
2018-09-06T00:29:19.974Z,97.80
2018-09-06T00:31:48.934Z,97.60
2018-09-06T00:34:17.989Z,97.30
2018-09-06T00:36:46.966Z,97.50
2018-09-06T00:39:16.013Z,97.20
2018-09-06T00:41:45.021Z,97.50
2018-09-06T00:44:14.063Z,97.50
2018-09-06T00:46:43.106Z,97.20
2018-09-06T00:49:12.160Z,97.40
2018-09-06T00:51:41.228Z,97.70
2018-09-06T00:54:10.225Z,97.50
2018-09-06T00:56:39.249Z,97.90
2018-09-06T00:59:08.292Z,97.60
2018-09-06T01:01:37.361Z,97.90
2018-09-06T01:04:06.304Z,97.60
2018-09-06T01:06:35.320Z,97.50
2018-09-06T01:09:05.564Z,97.70
2018-09-06T01:11:34.616Z,97.70
2018-09-06T01:14:03.663Z,98.00
2018-09-06T01:16:32.624Z,98.00
2018-09-06T01:19:01.644Z,97.90
2018-09-06T01:21:30.631Z,98.10
2018-09-06T01:23:59.636Z,98.20
2018-09-06T01:26:28.640Z,98.20
2018-09-06T01:28:57.866Z,98.30
2018-09-06T01:31:27.165Z,98.30
2018-09-06T01:33:56.166Z,98.20
2018-09-06T01:36:30.527Z,97.90
2018-09-06T01:38:59.596Z,97.80
2018-09-06T01:41:28.599Z,97.70
2018-09-06T01:43:57.942Z,97.90
2018-09-06T01:46:26.932Z,98.10
2018-09-06T01:48:55.910Z,98.20
2018-09-06T01:51:25.257Z,98.50
2018-09-06T01:53:54.316Z,98.70
2018-09-06T01:56:23.400Z,98.60
2018-09-06T01:58:52.600Z,98.40
2018-09-06T02:01:21.616Z,98.40
2018-09-06T02:03:50.921Z,98.40
2018-09-06T02:06:19.938Z,97.70
2018-09-06T02:08:48.936Z,97.60
2018-09-06T02:11:18.002Z,97.70
2018-09-06T02:13:47.357Z,97.70
2018-09-06T02:16:16.466Z,97.30
2018-09-06T02:18:45.477Z,97.40
2018-09-06T02:21:14.480Z,97.00
2018-09-06T02:23:43.521Z,97.00
2018-09-06T02:26:12.559Z,97.20
2018-09-06T02:28:41.585Z,97.40
2018-09-06T02:31:10.568Z,97.40
2018-09-06T02:33:39.612Z,97.80
2018-09-06T02:36:08.721Z,97.30
2018-09-06T02:38:37.708Z,97.30
2018-09-06T02:41:07.025Z,97.50
2018-09-06T02:43:36.028Z,97.90
2018-09-06T02:46:05.132Z,98.10
2018-09-06T02:48:39.700Z,97.90
2018-09-06T02:51:21.796Z,97.70
2018-09-06T02:53:50.840Z,97.70
2018-09-06T02:56:19.768Z,97.90
2018-09-06T02:58:48.777Z,97.70
2018-09-06T03:01:17.778Z,97.40
2018-09-06T03:03:46.831Z,97.30
2018-09-06T03:06:15.814Z,97.20
2018-09-06T03:08:44.893Z,97.60
2018-09-06T03:11:17.878Z,97.60
2018-09-06T03:13:46.964Z,97.90
2018-09-06T03:16:16.001Z,98.40
2018-09-06T03:18:45.039Z,98.70
2018-09-06T03:21:14.057Z,99.40
2018-09-06T03:23:43.072Z,99.30
2018-09-06T03:26:16.200Z,99.60
2018-09-06T03:28:46.761Z,99.20
2018-09-06T03:31:15.794Z,99.10
2018-09-06T03:33:45.311Z,99.10
2018-09-06T03:36:14.988Z,98.70
2018-09-06T03:38:44.353Z,98.60
2018-09-06T03:41:13.350Z,98.70
2018-09-06T03:43:42.709Z,98.50
2018-09-06T03:46:11.795Z,98.70
2018-09-06T03:48:40.792Z,98.10
2018-09-06T03:51:09.947Z,98.30
2018-09-06T03:53:38.928Z,98.80
2018-09-06T03:56:08.104Z,99.10
2018-09-06T03:58:37.159Z,99.30
2018-09-06T04:01:06.572Z,99.50
2018-09-06T04:03:35.548Z,99.60
2018-09-06T04:06:04.540Z,99.70
2018-09-06T04:08:33.605Z,98.80
2018-09-06T04:11:02.614Z,99.40
2018-09-06T04:13:31.721Z,99.90
2018-09-06T04:16:00.703Z,99.90
2018-09-06T04:18:29.759Z,99.90
2018-09-06T04:20:58.738Z,99.90
2018-09-06T04:23:27.764Z,99.90
2018-09-06T04:25:56.959Z,99.90
2018-09-06T04:28:25.997Z,99.90
2018-09-06T04:30:55.075Z,99.90
2018-09-06T04:33:24.045Z,99.90
2018-09-06T04:35:53.189Z,99.90
2018-09-06T04:38:22.208Z,99.80
2018-09-06T04:40:51.206Z,99.90
2018-09-06T04:43:20.184Z,99.90
2018-09-06T04:45:49.184Z,99.70
2018-09-06T04:48:18.249Z,99.00
2018-09-06T04:50:47.620Z,98.60
2018-09-06T04:53:16.644Z,98.70
2018-09-06T04:55:45.630Z,99.00
2018-09-06T04:58:14.689Z,99.10
2018-09-06T05:00:43.757Z,99.40
2018-09-06T05:03:13.073Z,99.90
2018-09-06T05:05:42.048Z,99.60
2018-09-06T05:08:11.041Z,99.90
2018-09-06T05:10:40.045Z,99.80
2018-09-06T05:13:09.105Z,99.60
2018-09-06T05:15:38.172Z,99.40
2018-09-06T05:18:07.244Z,99.40
2018-09-06T05:20:36.322Z,99.90
2018-09-06T05:23:05.946Z,99.90
2018-09-06T05:25:35.366Z,99.90
2018-09-06T05:28:04.352Z,99.90
2018-09-06T05:30:33.487Z,99.90
2018-09-06T05:33:02.487Z,99.90
2018-09-06T05:35:31.524Z,99.90
2018-09-06T05:38:00.901Z,99.90
2018-09-06T05:40:29.905Z,99.90
2018-09-06T05:42:58.875Z,99.90
2018-09-06T05:45:27.912Z,99.90
2018-09-06T05:47:58.577Z,99.90
2018-09-06T05:50:28.984Z,99.90
2018-09-06T05:52:59.047Z,99.90
2018-09-06T05:55:28.302Z,99.90
2018-09-06T05:57:57.386Z,99.90
2018-09-06T06:00:31.898Z,99.90
2018-09-06T06:03:02.941Z,99.90
2018-09-06T06:05:32.068Z,99.90
2018-09-06T06:08:12.413Z,99.90
2018-09-06T06:10:41.736Z,99.90
2018-09-06T06:13:10.725Z,99.90
2018-09-06T06:15:39.749Z,99.90
2018-09-06T06:18:08.874Z,99.30
2018-09-06T06:20:38.086Z,98.90
2018-09-06T06:23:07.104Z,98.60
2018-09-06T06:25:36.304Z,99.70
2018-09-06T06:28:05.278Z,99.90
2018-09-06T06:30:34.318Z,99.40
2018-09-06T06:33:03.323Z,99.90
2018-09-06T06:35:32.333Z,99.90
2018-09-06T06:38:01.353Z,99.90
2018-09-06T06:40:30.358Z,99.90
2018-09-06T06:42:59.455Z,99.90
2018-09-06T06:45:28.482Z,99.90
2018-09-06T06:47:57.567Z,99.90
2018-09-06T06:50:26.736Z,99.90
2018-09-06T06:52:55.684Z,99.90
2018-09-06T06:55:24.793Z,99.90
2018-09-06T06:57:53.768Z,99.90
2018-09-06T07:00:22.811Z,99.90
2018-09-06T07:02:52.426Z,99.90
2018-09-06T07:05:21.637Z,99.90
2018-09-06T07:07:50.849Z,99.90
2018-09-06T07:10:19.856Z,99.90
2018-09-06T07:12:48.939Z,99.90
2018-09-06T07:15:17.969Z,99.90
2018-09-06T07:17:46.993Z,99.90
2018-09-06T07:20:16.087Z,99.90
2018-09-06T07:22:45.069Z,99.90
2018-09-06T07:25:14.097Z,99.90
2018-09-06T07:27:43.102Z,99.90
2018-09-06T07:30:12.068Z,99.90
2018-09-06T07:32:41.068Z,99.90
2018-09-06T07:35:10.279Z,99.90
2018-09-06T07:37:39.231Z,99.90
2018-09-06T07:40:08.264Z,99.90
2018-09-06T07:42:37.314Z,99.90
2018-09-06T07:45:06.461Z,99.90
2018-09-06T07:47:35.445Z,99.90
2018-09-06T07:50:04.513Z,99.90
2018-09-06T07:52:33.500Z,99.90
2018-09-06T07:55:02.560Z,99.90
2018-09-06T07:57:31.776Z,99.90
2018-09-06T08:00:00.820Z,99.90
2018-09-06T08:02:29.793Z,99.80
2018-09-06T08:04:58.808Z,99.40
2018-09-06T08:07:27.824Z,99.50
2018-09-06T08:09:56.795Z,99.90
2018-09-06T08:12:25.832Z,99.90
2018-09-06T08:14:55.126Z,99.90
2018-09-06T08:17:24.100Z,99.20
2018-09-06T08:19:53.154Z,99.50
2018-09-06T08:22:22.196Z,99.40
2018-09-06T08:24:51.200Z,98.10
2018-09-06T08:27:20.387Z,97.80
2018-09-06T08:29:49.544Z,97.10
2018-09-06T08:32:18.605Z,96.10
2018-09-06T08:34:47.717Z,95.00
2018-09-06T08:37:16.780Z,94.50
2018-09-06T08:39:45.781Z,93.40
2018-09-06T08:42:14.940Z,93.20
2018-09-06T08:44:43.938Z,93.10
2018-09-06T08:47:12.945Z,93.30
2018-09-06T08:49:41.954Z,93.70
2018-09-06T08:52:11.064Z,92.90
2018-09-06T08:54:40.173Z,92.50
2018-09-06T08:57:10.046Z,93.10
2018-09-06T08:59:39.304Z,93.50
2018-09-06T09:02:12.817Z,93.40
2018-09-06T09:04:41.894Z,93.20
2018-09-06T09:07:10.877Z,92.00
2018-09-06T09:09:39.947Z,91.60
2018-09-06T09:12:09.249Z,92.30
2018-09-06T09:14:38.300Z,92.90
2018-09-06T09:17:07.361Z,93.20
2018-09-06T09:19:36.389Z,94.00
2018-09-06T09:22:05.574Z,93.70
2018-09-06T09:24:34.580Z,93.40
2018-09-06T09:27:03.589Z,94.00
2018-09-06T09:29:32.602Z,93.70
2018-09-06T09:32:01.649Z,93.10
2018-09-06T09:34:30.701Z,93.50
2018-09-06T09:36:59.709Z,94.00
2018-09-06T09:39:28.770Z,94.10
2018-09-06T09:41:57.811Z,94.50
2018-09-06T09:44:26.830Z,94.30
2018-09-06T09:49:24.359Z,95.00
2018-09-06T09:51:53.372Z,94.60
2018-09-06T09:54:22.401Z,94.90
2018-09-06T09:56:51.479Z,95.30
2018-09-06T09:59:20.589Z,94.50
2018-09-06T10:01:54.888Z,94.40
2018-09-06T10:04:29.245Z,94.70
2018-09-06T10:07:03.493Z,95.30
2018-09-06T10:09:32.538Z,95.20
2018-09-06T10:12:01.604Z,95.60
2018-09-06T10:14:30.615Z,96.00
2018-09-06T10:17:02.705Z,95.70
2018-09-06T10:19:31.732Z,95.50
2018-09-06T10:22:00.784Z,94.70
2018-09-06T10:24:29.755Z,95.00
2018-09-06T10:26:58.799Z,94.60
2018-09-06T10:29:27.816Z,94.30
2018-09-06T10:31:56.916Z,93.60
2018-09-06T10:34:25.956Z,92.80
2018-09-06T10:36:55.045Z,91.60
2018-09-06T10:39:24.185Z,88.30
2018-09-06T10:41:53.160Z,85.20
2018-09-06T10:44:22.212Z,84.60
2018-09-06T10:46:51.578Z,85.00
2018-09-06T10:49:20.556Z,87.30
2018-09-06T10:51:49.604Z,86.70
2018-09-06T10:54:18.747Z,85.20
2018-09-06T10:56:54.553Z,86.00
2018-09-06T10:59:23.620Z,85.70
2018-09-06T11:01:52.640Z,84.70
2018-09-06T11:04:21.720Z,82.10
2018-09-06T11:06:50.902Z,83.00
2018-09-06T11:09:20.207Z,85.80
2018-09-06T11:11:49.210Z,87.20
2018-09-06T11:14:18.212Z,88.30
2018-09-06T11:16:47.542Z,88.90
2018-09-06T11:19:16.651Z,89.20
2018-09-06T11:21:45.759Z,89.10
2018-09-06T11:24:14.648Z,89.90
2018-09-06T11:26:43.693Z,90.50
2018-09-06T11:29:12.720Z,90.00
2018-09-06T11:31:41.770Z,90.00
2018-09-06T11:34:10.780Z,89.00
2018-09-06T11:36:39.760Z,88.90
2018-09-06T11:39:09.776Z,87.00
2018-09-06T11:41:39.552Z,85.40
2018-09-06T11:44:08.904Z,85.10
2018-09-06T11:46:38.050Z,86.00
2018-09-06T11:49:07.273Z,85.60
2018-09-06T11:51:36.339Z,85.70
2018-09-06T11:54:05.324Z,85.10
2018-09-06T11:56:34.604Z,85.40
2018-09-06T11:59:03.620Z,87.30
2018-09-06T12:01:32.769Z,89.20
2018-09-06T12:04:01.884Z,90.80
2018-09-06T12:06:30.947Z,91.00
2018-09-06T12:08:59.977Z,91.10
2018-09-06T12:11:29.062Z,91.30
2018-09-06T12:13:58.062Z,91.40
2018-09-06T12:16:27.311Z,90.60
2018-09-06T12:18:56.336Z,90.40
2018-09-06T12:21:25.377Z,90.10
2018-09-06T12:23:54.505Z,90.30
2018-09-06T12:26:23.481Z,90.30
2018-09-06T12:28:52.517Z,90.30
2018-09-06T12:31:21.628Z,90.30
2018-09-06T12:33:50.728Z,90.20
2018-09-06T12:36:19.939Z,90.10
2018-09-06T12:38:49.132Z,90.60
2018-09-06T12:41:18.066Z,90.70
2018-09-06T12:43:47.165Z,91.30
2018-09-06T12:46:16.186Z,91.30
2018-09-06T12:48:45.265Z,91.00
2018-09-06T12:51:14.256Z,91.80
2018-09-06T12:53:43.308Z,92.40
2018-09-06T12:56:12.432Z,92.90
2018-09-06T12:58:41.491Z,93.80
2018-09-06T13:01:11.960Z,94.10
2018-09-06T13:03:41.628Z,94.00
2018-09-06T13:06:10.672Z,95.00
2018-09-06T13:08:39.716Z,94.50
2018-09-06T13:11:08.745Z,94.40
2018-09-06T13:13:37.849Z,93.80
2018-09-06T13:16:07.038Z,93.90
2018-09-06T13:18:36.235Z,94.50
2018-09-06T13:21:05.652Z,94.50
2018-09-06T13:23:34.753Z,94.00
2018-09-06T13:26:03.870Z,95.60
2018-09-06T13:28:33.288Z,95.10
2018-09-06T13:31:02.285Z,95.00
2018-09-06T13:33:31.438Z,93.60
2018-09-06T13:36:00.717Z,94.00
2018-09-06T13:38:29.724Z,93.80
2018-09-06T13:40:58.737Z,94.00
2018-09-06T13:43:27.834Z,93.60
2018-09-06T13:45:56.781Z,93.40
2018-09-06T13:48:25.800Z,94.10
2018-09-06T13:50:54.857Z,94.00
2018-09-06T13:53:23.841Z,93.00
2018-09-06T13:55:52.910Z,93.40
2018-09-06T13:58:22.029Z,92.90
2018-09-06T14:00:50.987Z,92.40
2018-09-06T14:03:20.023Z,92.90
2018-09-06T14:05:49.048Z,92.00
2018-09-06T14:08:18.049Z,91.70
2018-09-06T14:10:47.105Z,90.80
2018-09-06T14:13:16.147Z,91.10
2018-09-06T14:15:45.210Z,91.10
2018-09-06T14:18:14.336Z,90.00
2018-09-06T14:20:43.341Z,91.10
2018-09-06T14:23:12.356Z,90.90
2018-09-06T14:25:41.351Z,90.10
2018-09-06T14:28:10.396Z,90.70
2018-09-06T14:30:39.392Z,91.90
2018-09-06T14:33:08.390Z,91.40
2018-09-06T14:35:37.424Z,91.40
2018-09-06T14:38:06.486Z,91.60
2018-09-06T14:40:35.496Z,91.80
2018-09-06T14:43:04.877Z,90.80
2018-09-06T14:45:33.888Z,91.50
2018-09-06T14:48:02.925Z,91.50
2018-09-06T14:50:31.906Z,91.80
2018-09-06T14:53:01.233Z,92.80
2018-09-06T14:55:30.355Z,92.70
2018-09-06T14:57:59.349Z,93.50
2018-09-06T15:00:28.353Z,93.60
2018-09-06T15:02:57.358Z,93.90
2018-09-06T15:05:26.383Z,92.40
2018-09-06T15:07:55.496Z,91.70
2018-09-06T15:10:24.650Z,88.00
2018-09-06T15:12:53.674Z,86.10
2018-09-06T15:15:22.711Z,84.70
2018-09-06T15:17:51.768Z,82.30
2018-09-06T15:20:21.005Z,81.60
2018-09-06T15:22:50.360Z,82.80
2018-09-06T15:25:19.370Z,81.90
2018-09-06T15:27:48.505Z,82.70
2018-09-06T15:30:17.693Z,82.40
2018-09-06T15:32:46.686Z,82.70
2018-09-06T15:35:15.704Z,84.50
2018-09-06T15:37:44.736Z,84.40
2018-09-06T15:40:14.016Z,82.30
2018-09-06T15:42:43.041Z,82.20
2018-09-06T15:45:12.044Z,82.50
2018-09-06T15:47:41.054Z,84.20
2018-09-06T15:50:10.353Z,84.60
2018-09-06T15:52:39.352Z,84.60
2018-09-06T15:55:08.344Z,85.00
2018-09-06T15:57:37.779Z,85.10
2018-09-06T16:00:06.839Z,84.50
2018-09-06T16:02:35.890Z,84.90
2018-09-06T16:05:04.934Z,84.30
2018-09-06T16:07:33.957Z,85.20
2018-09-06T16:10:03.190Z,85.90
2018-09-06T16:12:32.216Z,86.50
2018-09-06T16:15:01.229Z,87.40
2018-09-06T16:17:30.363Z,87.90
2018-09-06T16:19:59.352Z,88.20
2018-09-06T16:22:28.548Z,88.00
2018-09-06T16:24:57.521Z,87.80
2018-09-06T16:27:26.533Z,87.70
2018-09-06T16:29:55.693Z,87.40
2018-09-06T16:32:24.741Z,86.20
2018-09-06T16:34:53.805Z,85.90
2018-09-06T16:37:22.804Z,86.40
2018-09-06T16:39:51.820Z,86.00
2018-09-06T16:42:20.885Z,86.60
2018-09-06T16:44:49.969Z,87.30
2018-09-06T16:47:18.975Z,87.70
2018-09-06T16:49:48.044Z,87.90
2018-09-06T16:52:17.077Z,88.50
2018-09-06T16:54:46.319Z,88.20
2018-09-06T16:57:15.501Z,88.10
2018-09-06T16:59:44.681Z,88.40
2018-09-06T17:02:14.248Z,88.70
2018-09-06T17:04:43.289Z,88.60
2018-09-06T17:07:12.416Z,88.90
2018-09-06T17:09:41.531Z,88.70
2018-09-06T17:12:10.575Z,88.50
2018-09-06T17:14:40.223Z,87.40
2018-09-06T17:17:09.249Z,87.10
2018-09-06T17:19:38.252Z,87.30
2018-09-06T17:22:07.292Z,87.20
2018-09-06T17:24:36.328Z,86.90
2018-09-06T17:27:05.497Z,87.20
2018-09-06T17:29:34.606Z,86.50
2018-09-06T17:32:03.588Z,85.90
2018-09-06T17:34:32.629Z,86.10
2018-09-06T17:37:02.441Z,85.80
2018-09-06T17:39:31.465Z,85.80
2018-09-06T17:42:00.480Z,86.40
2018-09-06T17:44:29.466Z,86.40
2018-09-06T17:46:58.500Z,86.50
2018-09-06T17:49:27.515Z,87.30
2018-09-06T17:51:56.487Z,87.40
2018-09-06T17:54:25.504Z,87.90
2018-09-06T17:56:54.626Z,88.10
2018-09-06T17:59:23.823Z,89.20
2018-09-06T18:01:52.873Z,89.30
2018-09-06T18:04:21.904Z,90.10
2018-09-06T18:06:50.955Z,90.20
2018-09-06T18:09:20.043Z,90.70
2018-09-06T18:11:49.154Z,90.90
2018-09-06T18:14:18.224Z,91.30
2018-09-06T18:16:47.317Z,91.30
2018-09-06T18:19:16.384Z,91.50
2018-09-06T18:21:45.398Z,91.70
2018-09-06T18:24:14.473Z,92.00
2018-09-06T18:26:43.577Z,92.00
2018-09-06T18:29:12.806Z,92.50
2018-09-06T18:31:41.869Z,92.60
2018-09-06T18:34:10.928Z,92.70
2018-09-06T18:36:39.968Z,92.70
2018-09-06T18:39:09.046Z,92.90
2018-09-06T18:41:38.152Z,93.20
2018-09-06T18:44:07.222Z,93.10
2018-09-06T18:46:36.495Z,93.20
2018-09-06T18:49:05.500Z,93.40
2018-09-06T18:51:34.524Z,93.20
2018-09-06T18:54:03.594Z,93.50
2018-09-06T18:56:32.603Z,93.80
2018-09-06T18:59:01.667Z,93.80
2018-09-06T19:01:30.716Z,93.90
2018-09-06T19:03:59.677Z,94.00
2018-09-06T19:06:28.729Z,94.20
2018-09-06T19:08:57.721Z,95.00
2018-09-06T19:11:26.761Z,94.70
2018-09-06T19:13:56.149Z,94.90
2018-09-06T19:16:25.163Z,95.00
2018-09-06T19:18:54.174Z,95.10
2018-09-06T19:21:23.469Z,95.10
2018-09-06T19:23:52.597Z,95.20
2018-09-06T19:26:21.664Z,95.10
2018-09-06T19:28:50.616Z,95.10
2018-09-06T19:31:19.658Z,95.10
2018-09-06T19:33:48.709Z,95.20
2018-09-06T19:36:17.687Z,95.40
2018-09-06T19:38:46.692Z,95.80
2018-09-06T19:41:15.697Z,95.90
2018-09-06T19:43:45.073Z,96.10
2018-09-06T19:46:14.103Z,96.40
2018-09-06T19:48:43.099Z,96.50
2018-09-06T19:51:12.176Z,96.50
2018-09-06T19:53:41.372Z,96.60
2018-09-06T19:56:10.377Z,96.70
2018-09-06T19:58:39.401Z,96.80
2018-09-06T20:01:08.425Z,96.90
2018-09-06T20:03:37.402Z,96.80
2018-09-06T20:06:06.400Z,96.50
2018-09-06T20:08:35.465Z,96.50
2018-09-06T20:11:04.481Z,96.50
2018-09-06T20:13:33.509Z,96.40
2018-09-06T20:16:02.495Z,96.70
2018-09-06T20:18:31.548Z,97.10
2018-09-06T20:21:00.552Z,97.20
2018-09-06T20:23:29.566Z,97.50
2018-09-06T20:25:58.648Z,97.70
2018-09-06T20:28:27.629Z,97.90
2018-09-06T20:30:56.890Z,98.00
2018-09-06T20:33:25.886Z,98.10
2018-09-06T20:35:54.976Z,98.30
2018-09-06T20:38:23.980Z,98.50
2018-09-06T20:40:52.980Z,98.60
2018-09-06T20:43:22.133Z,98.60
2018-09-06T20:45:51.128Z,98.60
2018-09-06T20:48:20.145Z,98.40
2018-09-06T20:50:49.228Z,98.60
2018-09-06T20:53:18.300Z,98.60
2018-09-06T20:55:47.635Z,98.50
2018-09-06T20:58:16.661Z,98.30
2018-09-06T21:00:45.662Z,98.20
2018-09-06T21:03:14.808Z,98.30
2018-09-06T21:05:43.805Z,98.30
2018-09-06T21:08:12.811Z,98.30
2018-09-06T21:10:41.863Z,98.50
2018-09-06T21:13:10.813Z,98.30
2018-09-06T21:15:39.788Z,98.30
2018-09-06T21:18:08.785Z,98.00
2018-09-06T21:20:37.821Z,98.10
2018-09-06T21:23:07.152Z,97.70
2018-09-06T21:25:36.145Z,97.60
2018-09-06T21:28:05.284Z,97.30
2018-09-06T21:30:34.304Z,97.50
2018-09-06T21:33:03.284Z,97.30
2018-09-06T21:35:32.289Z,97.00
2018-09-06T21:38:01.385Z,96.70
2018-09-06T21:40:30.691Z,96.80
2018-09-06T21:42:59.671Z,96.70
2018-09-06T21:45:28.733Z,96.50
2018-09-06T21:47:57.762Z,96.60
2018-09-06T21:50:26.748Z,96.60
2018-09-06T21:52:55.783Z,96.70
2018-09-06T21:55:24.776Z,96.90
2018-09-06T21:57:53.814Z,97.30
2018-09-06T22:00:22.966Z,97.40
2018-09-06T22:02:57.191Z,97.40
2018-09-06T22:05:26.216Z,97.30
2018-09-06T22:07:55.244Z,97.40
2018-09-06T22:10:24.234Z,97.30
2018-09-06T22:12:53.744Z,97.20
2018-09-06T22:15:22.802Z,97.30
2018-09-06T22:17:51.836Z,97.30
2018-09-06T22:20:21.266Z,97.20
2018-09-06T22:22:50.445Z,97.20
2018-09-06T22:25:19.424Z,97.50
2018-09-06T22:27:48.806Z,97.50
2018-09-06T22:30:17.807Z,97.70
2018-09-06T22:32:46.780Z,97.80
2018-09-06T22:35:15.798Z,98.30
2018-09-06T22:37:44.786Z,98.40
2018-09-06T22:40:13.776Z,98.30
2018-09-06T22:42:42.801Z,98.40
2018-09-06T22:45:11.825Z,98.40
2018-09-06T22:47:40.824Z,98.50
2018-09-06T22:50:09.947Z,98.50
2018-09-06T22:52:38.969Z,98.70
2018-09-06T22:55:07.996Z,98.60
2018-09-06T22:57:37.390Z,98.50
2018-09-06T23:00:06.800Z,98.40
2018-09-06T23:02:41.233Z,98.50
2018-09-06T23:05:10.251Z,98.80
2018-09-06T23:07:39.312Z,98.70
2018-09-06T23:10:08.402Z,98.30
2018-09-06T23:12:37.352Z,98.50
2018-09-06T23:15:06.776Z,98.30
2018-09-06T23:17:35.793Z,98.00
2018-09-06T23:20:04.888Z,98.20
2018-09-06T23:22:38.084Z,98.30
2018-09-06T23:25:11.622Z,98.60
2018-09-06T23:27:40.677Z,98.80
2018-09-06T23:30:09.712Z,98.60
2018-09-06T23:32:38.717Z,98.90
2018-09-06T23:35:07.744Z,98.90
2018-09-06T23:37:36.749Z,98.50
2018-09-06T23:40:05.788Z,98.50
2018-09-06T23:42:34.829Z,98.70
2018-09-06T23:45:03.983Z,98.20
2018-09-06T23:47:33.007Z,98.60
2018-09-06T23:50:02.081Z,98.50
2018-09-06T23:52:31.071Z,98.40
2018-09-06T23:55:00.098Z,98.20
2018-09-06T23:57:29.103Z,98.20
2018-09-06T23:59:58.131Z,98.10
